Time;durP1;ratioP1;P1;durP2;ratioP2;P2;SDS_P1;SDS_P2;PMS_P1;PMS_P2;Temp;Humidity;BMP_temperature;BMP_pressure;BME280_temperature;BME280_humidity;BME280_pressure;Samples;Min_cycle;Max_cycle;Signal;HPM_P1;HPM_P2
2021/07/19 00:01:52;;;;;;;9.32;8.10;;;;;;;;;;5099449;28;20024;-73
2021/07/19 00:04:19;;;;;;;10.65;7.50;;;;;;;;;;5102172;28;20561;-72
2021/07/19 00:06:46;;;;;;;9.02;7.55;;;;;;;;;;5100590;28;20031;-72
2021/07/19 00:09:12;;;;;;;9.00;7.50;;;;;;;;;;5103791;28;20020;-72
2021/07/19 00:11:38;;;;;;;7.88;7.18;;;;;;;;;;5100029;28;20051;-73
2021/07/19 00:14:04;;;;;;;8.63;7.70;;;;;;;;;;5104276;28;20034;-72
2021/07/19 00:16:31;;;;;;;8.70;7.90;;;;;;;;;;5094895;28;20112;-70
2021/07/19 00:18:57;;;;;;;10.10;7.88;;;;;;;;;;5101904;28;20026;-72
2021/07/19 00:21:23;;;;;;;8.35;7.55;;;;;;;;;;5098702;28;20031;-72
2021/07/19 00:23:49;;;;;;;8.52;7.32;;;;;;;;;;5098552;28;20016;-73
2021/07/19 00:26:15;;;;;;;8.30;7.50;;;;;;;;;;5100749;28;20054;-73
2021/07/19 00:28:41;;;;;;;9.63;7.10;;;;;;;;;;5097398;28;20020;-72
2021/07/19 00:31:07;;;;;;;8.20;7.40;;;;;;;;;;5097534;28;20032;-73
2021/07/19 00:33:33;;;;;;;8.95;7.75;;;;;;;;;;5105132;28;20043;-72
2021/07/19 00:36:00;;;;;;;9.32;8.05;;;;;;;;;;5099125;28;20032;-74
2021/07/19 00:38:26;;;;;;;9.43;8.52;;;;;;;;;;5094871;28;20028;-73
2021/07/19 00:40:52;;;;;;;8.60;7.70;;;;;;;;;;5102165;28;20040;-71
2021/07/19 00:43:18;;;;;;;8.63;7.63;;;;;;;;;;5101894;28;20026;-72
2021/07/19 00:45:44;;;;;;;8.23;7.30;;;;;;;;;;5096661;28;20059;-72
2021/07/19 00:48:10;;;;;;;9.05;8.15;;;;;;;;;;5096781;28;20031;-72
2021/07/19 00:50:38;;;;;;;9.45;7.63;;;;;;;;;;5106303;28;20146;-73
2021/07/19 00:53:07;;;;;;;11.18;7.47;;;;;;;;;;5102601;28;20020;-73
2021/07/19 00:55:41;;;;;;;9.02;8.13;;;;;;;;;;5096238;28;20027;-71
2021/07/19 00:58:08;;;;;;;8.65;7.75;;;;;;;;;;5108355;28;20024;-73
2021/07/19 01:00:36;;;;;;;8.23;7.43;;;;;;;;;;5097330;28;20055;-73
2021/07/19 01:03:04;;;;;;;7.38;6.60;;;;;;;;;;5097941;28;20046;-74
2021/07/19 01:05:30;;;;;;;7.03;6.32;;;;;;;;;;5095523;28;20063;-73
2021/07/19 01:07:57;;;;;;;7.70;6.93;;;;;;;;;;5096556;28;20104;-73
2021/07/19 01:10:24;;;;;;;7.55;6.75;;;;;;;;;;5104757;28;20111;-72
2021/07/19 01:12:51;;;;;;;7.78;6.13;;;;;;;;;;5100259;28;20030;-72
2021/07/19 01:15:18;;;;;;;7.65;6.88;;;;;;;;;;5103323;28;20059;-72
2021/07/19 01:17:44;;;;;;;8.55;7.38;;;;;;;;;;5097939;28;20024;-71
2021/07/19 01:20:11;;;;;;;8.10;7.30;;;;;;;;;;5107807;28;20377;-72
2021/07/19 01:22:56;;;;;;;9.20;8.05;;;;;;;;;;5102821;28;20469;-73
2021/07/19 01:25:41;;;;;;;8.98;8.07;;;;;;;;;;5105038;28;20111;-71
2021/07/19 01:28:17;;;;;;;8.23;7.47;;;;;;;;;;5096847;28;20032;-73
2021/07/19 01:30:44;;;;;;;9.05;8.15;;;;;;;;;;5100806;28;20545;-72
2021/07/19 01:33:12;;;;;;;8.90;8.05;;;;;;;;;;5098260;28;20028;-73
2021/07/19 01:35:40;;;;;;;8.02;7.32;;;;;;;;;;5100362;28;20103;-73
2021/07/19 01:38:07;;;;;;;8.48;7.68;;;;;;;;;;5100062;28;20020;-72
2021/07/19 01:40:33;;;;;;;8.35;7.43;;;;;;;;;;5104596;28;20036;-72
2021/07/19 01:43:00;;;;;;;9.15;8.23;;;;;;;;;;5103168;28;20036;-72
2021/07/19 01:45:26;;;;;;;8.15;7.35;;;;;;;;;;5099973;28;20020;-73
2021/07/19 01:47:53;;;;;;;7.85;7.15;;;;;;;;;;5100134;28;20028;-72
2021/07/19 01:50:19;;;;;;;8.20;7.40;;;;;;;;;;5105767;28;20035;-72
2021/07/19 01:52:46;;;;;;;8.43;7.53;;;;;;;;;;5109145;28;20043;-72
2021/07/19 01:55:13;;;;;;;8.93;8.07;;;;;;;;;;5100574;28;20056;-72
2021/07/19 01:57:39;;;;;;;8.60;7.70;;;;;;;;;;5096991;28;20120;-74
2021/07/19 02:00:06;;;;;;;8.95;8.13;;;;;;;;;;5103688;28;20601;-71
2021/07/19 02:02:33;;;;;;;8.68;7.88;;;;;;;;;;5097772;28;20032;-72
2021/07/19 02:05:00;;;;;;;8.38;7.57;;;;;;;;;;5107306;28;20020;-73
2021/07/19 02:07:27;;;;;;;8.38;7.30;;;;;;;;;;5101772;28;20390;-73
2021/07/19 02:09:54;;;;;;;8.60;7.80;;;;;;;;;;5104164;28;20035;-72
2021/07/19 02:12:20;;;;;;;10.25;8.70;;;;;;;;;;5100184;28;20752;-72
2021/07/19 02:14:47;;;;;;;9.32;8.35;;;;;;;;;;5099588;28;20140;-72
2021/07/19 02:17:14;;;;;;;8.85;7.32;;;;;;;;;;5104104;28;20477;-72
2021/07/19 02:19:42;;;;;;;7.82;7.03;;;;;;;;;;5101186;28;20028;-72
2021/07/19 02:22:09;;;;;;;10.60;7.65;;;;;;;;;;5098889;28;20034;-72
2021/07/19 02:24:35;;;;;;;7.60;6.90;;;;;;;;;;5100960;28;20441;-72
2021/07/19 02:27:01;;;;;;;7.97;7.20;;;;;;;;;;5103002;28;20027;-73
2021/07/19 02:29:31;;;;;;;9.02;6.93;;;;;;;;;;5098473;28;20427;-73
2021/07/19 02:31:57;;;;;;;8.23;7.22;;;;;;;;;;5096981;28;20045;-73
2021/07/19 02:34:23;;;;;;;7.60;6.90;;;;;;;;;;5103614;28;20035;-72
2021/07/19 02:36:50;;;;;;;7.63;6.82;;;;;;;;;;5098389;28;20039;-72
2021/07/19 02:39:16;;;;;;;8.38;6.75;;;;;;;;;;5104554;28;20776;-73
2021/07/19 02:41:46;;;;;;;7.30;6.38;;;;;;;;;;5097610;28;20557;-72
2021/07/19 02:44:13;;;;;;;7.50;6.75;;;;;;;;;;5102891;28;20039;-72
2021/07/19 02:46:40;;;;;;;8.07;7.28;;;;;;;;;;5104198;28;20100;-72
2021/07/19 02:49:10;;;;;;;7.07;6.35;;;;;;;;;;5102276;28;20111;-73
2021/07/19 02:51:36;;;;;;;11.95;6.78;;;;;;;;;;5105680;28;20081;-73
2021/07/19 02:54:03;;;;;;;7.68;6.85;;;;;;;;;;5104510;28;20034;-74
2021/07/19 02:56:30;;;;;;;8.07;6.75;;;;;;;;;;5102522;28;20027;-72
2021/07/19 02:58:56;;;;;;;8.82;7.22;;;;;;;;;;5101316;28;20507;-72
2021/07/19 03:01:22;;;;;;;7.82;7.03;;;;;;;;;;5095310;28;20067;-73
2021/07/19 03:03:53;;;;;;;9.55;7.90;;;;;;;;;;5100254;28;20115;-71
2021/07/19 03:06:22;;;;;;;11.60;8.73;;;;;;;;;;5094844;28;20035;-72
2021/07/19 03:08:48;;;;;;;10.60;9.52;;;;;;;;;;5107421;28;20107;-72
2021/07/19 03:11:38;;;;;;;10.80;9.80;;;;;;;;;;5099436;28;20039;-72
2021/07/19 03:14:06;;;;;;;11.05;9.95;;;;;;;;;;5102219;28;20074;-71
2021/07/19 03:16:33;;;;;;;11.32;10.00;;;;;;;;;;5096536;28;20031;-73
2021/07/19 03:19:00;;;;;;;12.98;11.68;;;;;;;;;;5108378;28;20390;-72
2021/07/19 03:21:27;;;;;;;12.60;11.30;;;;;;;;;;5098579;28;20027;-72
2021/07/19 03:23:54;;;;;;;13.85;12.35;;;;;;;;;;5099426;28;20077;-73
2021/07/19 03:26:21;;;;;;;13.93;12.55;;;;;;;;;;5095626;28;20374;-72
2021/07/19 03:28:48;;;;;;;17.83;13.98;;;;;;;;;;5100670;28;20416;-74
2021/07/19 03:31:17;;;;;;;15.15;13.50;;;;;;;;;;5098651;28;20127;-71
2021/07/19 03:33:43;;;;;;;15.60;13.98;;;;;;;;;;5097885;28;20469;-73
2021/07/19 03:36:13;;;;;;;14.32;12.82;;;;;;;;;;5094127;28;20474;-71
2021/07/19 03:38:41;;;;;;;17.45;12.32;;;;;;;;;;5093650;28;20032;-72
2021/07/19 03:41:08;;;;;;;11.15;10.00;;;;;;;;;;5097196;28;20443;-72
2021/07/19 03:43:34;;;;;;;13.45;10.88;;;;;;;;;;5097045;28;20097;-73
2021/07/19 03:46:01;;;;;;;10.13;9.02;;;;;;;;;;5095308;28;20058;-72
2021/07/19 03:48:28;;;;;;;10.40;9.30;;;;;;;;;;5094872;28;20073;-73
2021/07/19 03:50:55;;;;;;;11.25;8.88;;;;;;;;;;5101589;28;20889;-72
2021/07/19 03:53:22;;;;;;;8.55;7.70;;;;;;;;;;5097660;28;20024;-72
2021/07/19 03:55:49;;;;;;;8.65;7.75;;;;;;;;;;5105188;28;20020;-71
2021/07/19 03:58:16;;;;;;;10.65;8.70;;;;;;;;;;5102961;28;20391;-72
2021/07/19 04:00:42;;;;;;;9.70;8.63;;;;;;;;;;5096142;27;20020;-72
2021/07/19 04:03:24;;;;;;;9.35;8.45;;;;;;;;;;5097855;28;20367;-72
2021/07/19 04:05:58;;;;;;;10.55;9.55;;;;;;;;;;5100732;28;20129;-71
2021/07/19 04:08:27;;;;;;;10.70;9.50;;;;;;;;;;5098980;28;20023;-72
2021/07/19 04:10:53;;;;;;;10.07;8.88;;;;;;;;;;5096991;28;20053;-72
2021/07/19 04:13:22;;;;;;;10.00;9.00;;;;;;;;;;5105842;28;20035;-72
2021/07/19 04:15:51;;;;;;;9.32;8.32;;;;;;;;;;5111227;28;20015;-73
2021/07/19 04:18:18;;;;;;;9.80;8.63;;;;;;;;;;5102911;28;20019;-73
2021/07/19 04:20:44;;;;;;;11.18;8.45;;;;;;;;;;5094323;28;20035;-73
2021/07/19 04:23:15;;;;;;;10.43;8.95;;;;;;;;;;5099347;28;20030;-73
2021/07/19 04:25:41;;;;;;;12.07;8.73;;;;;;;;;;5097259;28;20027;-73
2021/07/19 04:28:07;;;;;;;12.40;10.10;;;;;;;;;;5092101;28;20120;-72
2021/07/19 04:30:34;;;;;;;12.65;9.48;;;;;;;;;;5094097;28;20051;-72
2021/07/19 04:33:00;;;;;;;16.98;10.35;;;;;;;;;;5096111;28;20028;-73
2021/07/19 04:35:27;;;;;;;14.15;12.10;;;;;;;;;;5096191;28;20027;-74
2021/07/19 04:37:55;;;;;;;18.08;12.38;;;;;;;;;;5099932;28;20061;-72
2021/07/19 04:40:22;;;;;;;17.65;12.30;;;;;;;;;;5095945;28;20078;-71
2021/07/19 04:42:48;;;;;;;18.33;12.57;;;;;;;;;;5095995;28;20090;-72
2021/07/19 04:45:20;;;;;;;18.98;12.85;;;;;;;;;;5096149;28;20073;-71
2021/07/19 04:47:46;;;;;;;17.15;12.10;;;;;;;;;;5101283;28;20031;-73
2021/07/19 04:50:14;;;;;;;17.73;10.90;;;;;;;;;;5099288;28;20043;-72
2021/07/19 04:52:40;;;;;;;9.80;8.80;;;;;;;;;;5096578;28;20031;-78
2021/07/19 04:55:10;;;;;;;10.48;7.93;;;;;;;;;;5101877;28;20020;-70
2021/07/19 04:57:37;;;;;;;8.98;7.82;;;;;;;;;;5103333;28;20468;-73
2021/07/19 05:00:04;;;;;;;10.32;7.55;;;;;;;;;;5099437;28;20687;-73
2021/07/19 05:02:32;;;;;;;11.32;9.25;;;;;;;;;;5111593;28;20036;-73
2021/07/19 05:05:03;;;;;;;12.80;10.15;;;;;;;;;;5103865;28;20020;-73
2021/07/19 05:07:32;;;;;;;12.38;10.02;;;;;;;;;;5104131;28;20510;-73
2021/07/19 05:10:02;;;;;;;12.27;10.10;;;;;;;;;;5106726;28;20101;-74
2021/07/19 05:12:30;;;;;;;10.07;8.93;;;;;;;;;;5103312;28;20767;-73
2021/07/19 05:14:57;;;;;;;11.68;8.90;;;;;;;;;;5108404;28;20018;-74
2021/07/19 05:17:24;;;;;;;11.13;10.02;;;;;;;;;;5097521;28;20901;-73
2021/07/19 05:19:59;;;;;;;10.93;9.70;;;;;;;;;;5103381;28;20024;-72
2021/07/19 05:22:25;;;;;;;11.45;9.30;;;;;;;;;;5099965;28;20035;-72
2021/07/19 05:24:56;;;;;;;9.90;8.90;;;;;;;;;;5102971;28;20026;-75
2021/07/19 05:27:22;;;;;;;14.88;11.82;;;;;;;;;;5102085;28;20020;-73
2021/07/19 05:29:50;;;;;;;14.68;11.38;;;;;;;;;;5103150;28;20478;-72
2021/07/19 05:32:17;;;;;;;18.95;11.10;;;;;;;;;;5108095;28;20746;-73
2021/07/19 05:34:43;;;;;;;17.55;11.65;;;;;;;;;;5108531;28;20024;-78
2021/07/19 05:37:09;;;;;;;13.02;11.10;;;;;;;;;;5101162;28;20485;-77
2021/07/19 05:39:35;;;;;;;12.00;10.80;;;;;;;;;;5107249;28;20028;-77
2021/07/19 05:42:01;;;;;;;19.83;12.55;;;;;;;;;;5104161;28;20066;-77
2021/07/19 05:44:27;;;;;;;12.52;11.20;;;;;;;;;;5106082;27;20032;-79
2021/07/19 05:46:53;;;;;;;19.75;12.15;;;;;;;;;;5104103;28;20082;-72
2021/07/19 05:49:20;;;;;;;17.00;12.98;;;;;;;;;;5096683;28;20028;-71
2021/07/19 05:51:46;;;;;;;13.63;11.55;;;;;;;;;;5108581;28;20569;-71
2021/07/19 05:54:22;;;;;;;15.38;11.82;;;;;;;;;;5101972;28;20024;-71
2021/07/19 05:59:54;;;;;;;14.02;12.00;;;;;;;;;;5104689;28;20114;-74
2021/07/19 06:02:40;;;;;;;13.40;11.98;;;;;;;;;;5098719;28;20050;-72
2021/07/19 06:05:07;;;;;;;14.98;12.48;;;;;;;;;;5100239;28;20491;-72
2021/07/19 06:07:33;;;;;;;15.38;11.75;;;;;;;;;;5098083;28;20020;-70
2021/07/19 06:09:59;;;;;;;14.88;12.77;;;;;;;;;;5099199;28;20020;-70
2021/07/19 06:12:25;;;;;;;15.32;11.50;;;;;;;;;;5101077;28;20028;-70
2021/07/19 06:14:52;;;;;;;13.63;11.60;;;;;;;;;;5098382;28;20030;-70
2021/07/19 06:17:18;;;;;;;13.52;10.73;;;;;;;;;;5103970;28;20028;-71
2021/07/19 06:19:44;;;;;;;13.32;11.95;;;;;;;;;;5108712;28;20090;-72
2021/07/19 06:22:50;;;;;;;12.68;11.10;;;;;;;;;;5100948;27;20032;-71
2021/07/19 06:25:18;;;;;;;12.15;10.93;;;;;;;;;;5109804;28;20039;-70
2021/07/19 06:27:45;;;;;;;16.40;13.02;;;;;;;;;;5102693;28;20051;-71
2021/07/19 06:30:14;;;;;;;14.57;12.05;;;;;;;;;;5102236;28;20094;-70
2021/07/19 06:32:41;;;;;;;14.35;11.65;;;;;;;;;;5103721;28;20035;-70
2021/07/19 06:35:07;;;;;;;14.65;12.80;;;;;;;;;;5098471;28;20077;-73
2021/07/19 06:37:52;;;;;;;15.02;13.52;;;;;;;;;;5097635;28;20414;-73
2021/07/19 06:40:18;;;;;;;15.75;12.88;;;;;;;;;;5095208;28;20074;-71
2021/07/19 06:42:45;;;;;;;15.50;13.85;;;;;;;;;;5107199;28;20119;-72
2021/07/19 06:45:25;;;;;;;14.55;13.15;;;;;;;;;;5102060;28;20038;-72
2021/07/19 06:47:52;;;;;;;13.45;12.18;;;;;;;;;;5113911;27;20031;-74
2021/07/19 06:50:30;;;;;;;14.90;13.25;;;;;;;;;;5113997;27;20031;-73
2021/07/19 06:52:56;;;;;;;19.83;13.93;;;;;;;;;;5102002;27;20072;-74
2021/07/19 06:55:37;;;;;;;19.20;13.32;;;;;;;;;;5098620;27;20031;-76
2021/07/19 06:58:05;;;;;;;20.98;12.70;;;;;;;;;;5127759;27;20582;-81
2021/07/19 07:00:31;;;;;;;14.27;11.38;;;;;;;;;;5124892;27;20127;-77
2021/07/19 07:02:57;;;;;;;12.65;11.23;;;;;;;;;;5114224;27;20027;-83
2021/07/19 07:05:32;;;;;;;14.13;12.38;;;;;;;;;;5115067;27;20073;-81
2021/07/19 07:07:58;;;;;;;17.40;12.55;;;;;;;;;;5107264;27;20031;-78
2021/07/19 07:10:24;;;;;;;14.95;12.68;;;;;;;;;;5122832;27;20019;-79
2021/07/19 07:12:50;;;;;;;15.20;12.43;;;;;;;;;;5103274;27;20039;-86
2021/07/19 07:15:19;;;;;;;15.98;13.20;;;;;;;;;;5103026;28;20119;-81
2021/07/19 07:18:04;;;;;;;16.67;13.55;;;;;;;;;;5099930;28;20036;-74
2021/07/19 07:20:33;;;;;;;15.73;14.07;;;;;;;;;;5095405;28;20032;-79
2021/07/19 07:23:14;;;;;;;16.88;14.63;;;;;;;;;;5096672;28;20089;-72
2021/07/19 07:25:46;;;;;;;15.38;13.70;;;;;;;;;;5096752;28;20362;-76
2021/07/19 07:28:12;;;;;;;15.77;13.40;;;;;;;;;;5090425;28;20035;-77
2021/07/19 07:30:39;;;;;;;18.70;15.65;;;;;;;;;;5099734;28;20035;-76
2021/07/19 07:33:05;;;;;;;16.73;15.10;;;;;;;;;;5083096;28;20130;-73
2021/07/19 07:35:31;;;;;;;17.05;14.45;;;;;;;;;;5097527;28;20032;-73
2021/07/19 07:37:57;;;;;;;16.55;14.48;;;;;;;;;;5104431;28;20057;-72
2021/07/19 07:40:23;;;;;;;15.50;13.38;;;;;;;;;;5102081;28;20416;-73
2021/07/19 07:42:49;;;;;;;22.73;15.75;;;;;;;;;;5099817;28;20039;-73
2021/07/19 07:45:15;;;;;;;19.10;14.27;;;;;;;;;;5102460;28;20094;-77
2021/07/19 07:47:44;;;;;;;15.30;12.88;;;;;;;;;;5098441;27;20098;-78
2021/07/19 07:50:10;;;;;;;17.05;15.23;;;;;;;;;;5104694;27;20024;-77
2021/07/19 07:52:36;;;;;;;17.65;15.50;;;;;;;;;;5102612;28;20493;-84
2021/07/19 07:55:03;;;;;;;20.05;16.23;;;;;;;;;;5095779;28;20020;-76
2021/07/19 07:57:29;;;;;;;19.35;16.50;;;;;;;;;;5097897;28;20024;-80
2021/07/19 07:59:55;;;;;;;20.20;15.25;;;;;;;;;;5100036;28;20028;-72
2021/07/19 08:02:21;;;;;;;19.60;14.00;;;;;;;;;;5099819;28;20028;-80
2021/07/19 08:04:47;;;;;;;17.23;15.23;;;;;;;;;;5099628;28;20038;-76
2021/07/19 08:07:13;;;;;;;16.35;14.65;;;;;;;;;;5098120;28;20028;-70
2021/07/19 08:09:40;;;;;;;18.77;15.30;;;;;;;;;;5099601;28;20020;-70
2021/07/19 08:12:09;;;;;;;19.60;15.07;;;;;;;;;;5096724;28;20066;-78
2021/07/19 08:14:35;;;;;;;18.17;15.68;;;;;;;;;;5096880;28;20016;-72
2021/07/19 08:17:01;;;;;;;18.73;16.42;;;;;;;;;;5108526;28;20023;-71
2021/07/19 08:19:32;;;;;;;21.45;17.25;;;;;;;;;;5102656;28;20176;-72
2021/07/19 08:21:59;;;;;;;19.45;16.35;;;;;;;;;;5109217;28;20035;-71
2021/07/19 08:24:25;;;;;;;21.33;15.43;;;;;;;;;;5101690;28;20050;-73
2021/07/19 08:26:53;;;;;;;17.95;15.20;;;;;;;;;;5106820;28;20412;-73
2021/07/19 08:29:19;;;;;;;17.08;15.38;;;;;;;;;;5101414;28;20097;-73
2021/07/19 08:31:45;;;;;;;17.42;14.98;;;;;;;;;;5093807;28;20036;-74
2021/07/19 08:34:12;;;;;;;16.92;15.18;;;;;;;;;;5095487;28;20084;-72
2021/07/19 08:36:38;;;;;;;19.40;15.38;;;;;;;;;;5092903;28;20012;-73
2021/07/19 08:39:05;;;;;;;16.70;15.00;;;;;;;;;;5094073;28;20081;-73
2021/07/19 08:41:31;;;;;;;19.77;15.05;;;;;;;;;;5106536;28;20083;-73
2021/07/19 08:44:04;;;;;;;19.80;13.68;;;;;;;;;;5095553;28;20070;-74
2021/07/19 08:46:31;;;;;;;26.10;15.35;;;;;;;;;;5097288;28;20036;-75
2021/07/19 08:48:57;;;;;;;17.70;15.90;;;;;;;;;;5093077;28;20474;-77
2021/07/19 08:51:23;;;;;;;16.52;14.20;;;;;;;;;;5095238;28;20040;-77
2021/07/19 08:53:52;;;;;;;23.70;15.23;;;;;;;;;;5100393;28;20016;-84
2021/07/19 08:56:18;;;;;;;17.90;13.68;;;;;;;;;;5096402;28;20104;-77
2021/07/19 08:58:44;;;;;;;18.00;13.27;;;;;;;;;;5101936;28;20030;-77
2021/07/19 09:01:12;;;;;;;14.10;12.48;;;;;;;;;;5092092;28;20024;-72
2021/07/19 09:04:04;;;;;;;24.55;21.27;;;;;;;;;;5098122;28;20047;-71
2021/07/19 09:06:46;;;;;;;28.80;25.90;;;;;;;;;;5099513;28;20023;-78
2021/07/19 09:09:26;;;;;;;22.85;20.55;;;;;;;;;;5100147;28;20038;-75
2021/07/19 09:12:16;;;;;;;21.48;19.17;;;;;;;;;;5120122;27;20611;-71
2021/07/19 09:14:46;;;;;;;24.23;18.30;;;;;;;;;;5102481;28;20019;-80
2021/07/19 09:17:25;;;;;;;18.48;15.63;;;;;;;;;;5115081;28;20130;-74
2021/07/19 09:19:51;;;;;;;17.50;13.88;;;;;;;;;;5116269;28;20026;-80
2021/07/19 09:22:24;;;;;;;15.48;12.35;;;;;;;;;;5102117;28;20043;-83
2021/07/19 09:24:51;;;;;;;15.55;12.77;;;;;;;;;;5102852;28;20340;-83
2021/07/19 09:27:19;;;;;;;18.08;13.82;;;;;;;;;;5125891;28;20046;-79
2021/07/19 09:29:53;;;;;;;15.45;12.40;;;;;;;;;;5120295;27;20063;-70
2021/07/19 09:32:28;;;;;;;14.27;12.77;;;;;;;;;;5110931;27;20047;-72
2021/07/19 09:34:57;;;;;;;14.93;13.43;;;;;;;;;;5123404;27;20059;-75
2021/07/19 09:37:29;;;;;;;16.55;12.65;;;;;;;;;;5117437;27;20054;-71
2021/07/19 09:39:56;;;;;;;13.50;11.80;;;;;;;;;;5114529;27;20043;-72
2021/07/19 09:42:25;;;;;;;17.02;12.40;;;;;;;;;;5111237;27;20028;-73
2021/07/19 09:44:56;;;;;;;15.18;12.05;;;;;;;;;;5100674;28;20112;-76
2021/07/19 09:47:34;;;;;;;16.45;12.55;;;;;;;;;;5105157;28;20055;-77
2021/07/19 09:50:00;;;;;;;14.48;11.77;;;;;;;;;;5105108;27;20488;-83
2021/07/19 09:52:33;;;;;;;15.75;11.95;;;;;;;;;;5105519;28;20058;-78
2021/07/19 09:55:01;;;;;;;13.00;11.43;;;;;;;;;;5102251;28;20071;-75
2021/07/19 09:57:27;;;;;;;16.27;12.23;;;;;;;;;;5108574;27;20052;-75
2021/07/19 09:59:54;;;;;;;11.93;10.65;;;;;;;;;;5105235;28;20703;-75
2021/07/19 10:02:56;;;;;;;13.73;11.68;;;;;;;;;;5099856;28;20384;-74
2021/07/19 10:05:40;;;;;;;14.93;12.40;;;;;;;;;;5067711;28;20543;-83
2021/07/19 10:08:06;;;;;;;13.88;12.65;;;;;;;;;;5087069;28;20060;-72
2021/07/19 10:10:33;;;;;;;14.45;13.05;;;;;;;;;;5090235;28;20044;-72
2021/07/19 10:13:00;;;;;;;14.82;12.98;;;;;;;;;;5089614;28;20065;-71
2021/07/19 10:15:27;;;;;;;21.83;12.73;;;;;;;;;;5081683;28;20036;-72
2021/07/19 10:17:56;;;;;;;13.23;11.48;;;;;;;;;;5083516;28;20436;-72
2021/07/19 10:20:22;;;;;;;14.30;12.30;;;;;;;;;;5086133;28;20024;-84
2021/07/19 10:22:59;;;;;;;14.10;12.68;;;;;;;;;;5062770;28;20429;-73
2021/07/19 10:25:25;;;;;;;15.18;11.73;;;;;;;;;;5088597;28;20530;-72
2021/07/19 10:27:51;;;;;;;15.00;12.10;;;;;;;;;;5070540;28;20093;-73
2021/07/19 10:30:18;;;;;;;19.38;12.77;;;;;;;;;;5080113;28;20103;-78
2021/07/19 10:33:00;;;;;;;13.82;11.50;;;;;;;;;;5085730;28;21686;-74
2021/07/19 10:35:35;;;;;;;19.70;12.52;;;;;;;;;;5081455;28;20048;-81
2021/07/19 10:38:26;;;;;;;13.32;10.90;;;;;;;;;;5070419;28;20063;-74
2021/07/19 10:40:57;;;;;;;12.43;10.80;;;;;;;;;;5083093;28;20050;-73
2021/07/19 10:43:24;;;;;;;16.50;11.65;;;;;;;;;;5105447;28;20035;-72
2021/07/19 10:45:56;;;;;;;20.38;12.30;;;;;;;;;;5106181;28;20099;-72
2021/07/19 10:48:30;;;;;;;17.25;11.32;;;;;;;;;;5110924;27;20026;-83
2021/07/19 10:50:57;;;;;;;11.98;10.73;;;;;;;;;;5107000;27;20039;-74
2021/07/19 10:53:24;;;;;;;14.02;11.43;;;;;;;;;;5102248;28;20088;-77
2021/07/19 10:55:57;;;;;;;15.18;11.27;;;;;;;;;;5099715;28;20020;-75
2021/07/19 10:58:35;;;;;;;13.70;10.07;;;;;;;;;;5100229;28;20027;-75
2021/07/19 11:01:01;;;;;;;16.30;11.48;;;;;;;;;;5099337;28;20040;-84
2021/07/19 11:03:38;;;;;;;16.60;10.65;;;;;;;;;;5097927;28;20097;-70
2021/07/19 11:06:04;;;;;;;16.23;11.27;;;;;;;;;;5101687;28;20024;-78
2021/07/19 11:08:30;;;;;;;17.23;12.18;;;;;;;;;;5105441;28;20020;-79
2021/07/19 11:10:57;;;;;;;19.98;12.88;;;;;;;;;;5094975;28;20043;-74
2021/07/19 11:13:26;;;;;;;15.38;11.48;;;;;;;;;;5106148;28;20106;-73
2021/07/19 11:15:52;;;;;;;19.70;14.23;;;;;;;;;;5100847;28;20020;-73
2021/07/19 11:18:23;;;;;;;14.88;12.45;;;;;;;;;;5098790;28;20543;-76
2021/07/19 11:20:50;;;;;;;15.63;11.57;;;;;;;;;;5103508;28;20028;-74
2021/07/19 11:23:25;;;;;;;13.95;12.48;;;;;;;;;;5110276;28;20456;-76
2021/07/19 11:25:52;;;;;;;12.88;11.55;;;;;;;;;;5103656;28;20358;-74
2021/07/19 11:28:20;;;;;;;14.40;12.50;;;;;;;;;;5104937;28;20020;-75
2021/07/19 11:31:06;;;;;;;13.95;12.45;;;;;;;;;;5101477;28;20039;-76
2021/07/19 11:33:36;;;;;;;16.88;11.60;;;;;;;;;;5100565;28;20425;-75
2021/07/19 11:36:04;;;;;;;12.32;11.05;;;;;;;;;;5104269;28;20536;-73
2021/07/19 11:38:37;;;;;;;14.43;12.60;;;;;;;;;;5095596;28;20107;-76
2021/07/19 11:41:17;;;;;;;12.02;10.80;;;;;;;;;;5105497;28;20114;-77
2021/07/19 11:43:44;;;;;;;12.63;10.73;;;;;;;;;;5106953;28;20015;-75
2021/07/19 11:46:10;;;;;;;13.38;10.57;;;;;;;;;;5108456;28;20026;-83
2021/07/19 11:48:37;;;;;;;11.68;10.00;;;;;;;;;;5105137;27;20038;-80
2021/07/19 11:51:03;;;;;;;12.43;10.32;;;;;;;;;;5097265;28;20077;-78
2021/07/19 11:53:31;;;;;;;12.23;10.95;;;;;;;;;;5094001;28;20032;-80
2021/07/19 11:56:03;;;;;;;14.88;10.40;;;;;;;;;;5102426;28;20528;-72
2021/07/19 11:58:29;;;;;;;12.25;9.45;;;;;;;;;;5093198;28;20035;-76
2021/07/19 12:00:55;;;;;;;10.10;9.05;;;;;;;;;;5097711;28;20035;-72
2021/07/19 12:03:21;;;;;;;13.27;9.90;;;;;;;;;;5110190;28;20027;-74
2021/07/19 12:05:50;;;;;;;14.50;9.52;;;;;;;;;;5096968;28;20031;-73
2021/07/19 12:08:16;;;;;;;12.45;9.23;;;;;;;;;;5102219;28;20039;-74
2021/07/19 12:10:42;;;;;;;13.10;9.68;;;;;;;;;;5110555;28;20039;-74
2021/07/19 12:13:09;;;;;;;11.65;9.80;;;;;;;;;;5098305;28;20051;-75
2021/07/19 12:15:52;;;;;;;11.02;9.55;;;;;;;;;;5100634;28;20027;-74
2021/07/19 12:18:38;;;;;;;14.30;10.20;;;;;;;;;;5098072;28;20028;-75
2021/07/19 12:21:05;;;;;;;14.93;9.57;;;;;;;;;;5099712;28;20107;-73
2021/07/19 12:23:46;;;;;;;11.07;9.98;;;;;;;;;;5096476;28;20477;-76
2021/07/19 12:26:17;;;;;;;10.98;9.75;;;;;;;;;;5105683;28;20108;-74
2021/07/19 12:28:58;;;;;;;13.60;10.40;;;;;;;;;;5101208;28;20675;-74
2021/07/19 12:31:56;;;;;;;12.10;10.57;;;;;;;;;;5099772;28;20700;-72
2021/07/19 12:34:30;;;;;;;13.52;12.00;;;;;;;;;;5097995;28;20097;-73
2021/07/19 12:36:59;;;;;;;12.50;11.20;;;;;;;;;;5105348;28;20476;-74
2021/07/19 12:39:27;;;;;;;15.13;11.68;;;;;;;;;;5104299;28;20249;-72
2021/07/19 12:41:53;;;;;;;13.07;11.05;;;;;;;;;;5108594;28;20366;-72
2021/07/19 12:44:29;;;;;;;14.60;11.45;;;;;;;;;;5101369;28;20020;-72
2021/07/19 12:46:56;;;;;;;14.77;11.35;;;;;;;;;;5100629;28;20098;-74
2021/07/19 12:49:35;;;;;;;14.13;11.70;;;;;;;;;;5094042;28;20069;-73
2021/07/19 12:52:03;;;;;;;12.73;10.65;;;;;;;;;;5102195;28;20110;-72
2021/07/19 12:54:30;;;;;;;13.85;10.15;;;;;;;;;;5103513;28;20028;-72
2021/07/19 12:57:00;;;;;;;14.43;11.30;;;;;;;;;;5103614;28;20027;-73
2021/07/19 12:59:26;;;;;;;12.30;10.25;;;;;;;;;;5109628;28;20066;-73
2021/07/19 13:01:56;;;;;;;13.70;10.18;;;;;;;;;;5099926;28;20028;-73
2021/07/19 13:04:22;;;;;;;11.63;9.82;;;;;;;;;;5101668;28;20031;-74
2021/07/19 13:06:51;;;;;;;17.65;9.93;;;;;;;;;;5098820;28;20476;-73
2021/07/19 13:09:28;;;;;;;13.43;10.55;;;;;;;;;;5103687;28;20023;-72
2021/07/19 13:12:08;;;;;;;12.60;9.88;;;;;;;;;;5106037;28;20024;-72
2021/07/19 13:14:45;;;;;;;13.50;9.82;;;;;;;;;;5103168;28;20028;-72
2021/07/19 13:17:18;;;;;;;11.88;9.43;;;;;;;;;;5102147;28;20027;-72
2021/07/19 13:20:02;;;;;;;11.85;9.90;;;;;;;;;;5103693;28;20552;-73
2021/07/19 13:22:29;;;;;;;12.35;9.30;;;;;;;;;;5098753;28;20019;-73
2021/07/19 13:24:55;;;;;;;11.82;9.85;;;;;;;;;;5107039;28;20019;-73
2021/07/19 13:27:21;;;;;;;11.55;9.45;;;;;;;;;;5102164;27;20028;-73
2021/07/19 13:29:51;;;;;;;14.02;8.98;;;;;;;;;;5104829;27;20024;-73
2021/07/19 13:32:28;;;;;;;16.63;9.85;;;;;;;;;;5103631;28;20034;-79
2021/07/19 13:34:59;;;;;;;12.50;9.02;;;;;;;;;;5099863;28;20046;-75
2021/07/19 13:37:28;;;;;;;11.77;9.18;;;;;;;;;;5101006;28;20028;-74
2021/07/19 13:39:58;;;;;;;15.60;9.30;;;;;;;;;;5103131;28;20098;-75
2021/07/19 13:42:31;;;;;;;13.23;9.88;;;;;;;;;;5104509;28;20032;-75
2021/07/19 13:44:58;;;;;;;11.35;9.30;;;;;;;;;;5098494;28;20024;-72
2021/07/19 13:47:24;;;;;;;16.42;10.48;;;;;;;;;;5100866;27;20062;-72
2021/07/19 13:49:51;;;;;;;13.48;9.45;;;;;;;;;;5099036;28;20020;-73
2021/07/19 13:52:19;;;;;;;15.07;9.43;;;;;;;;;;5100078;28;20093;-73
2021/07/19 13:54:47;;;;;;;12.90;8.77;;;;;;;;;;5097605;28;20397;-72
2021/07/19 13:57:13;;;;;;;9.90;8.23;;;;;;;;;;5104537;28;20056;-73
2021/07/19 13:59:42;;;;;;;11.45;9.23;;;;;;;;;;5113519;27;20031;-72
2021/07/19 14:02:08;;;;;;;12.63;9.60;;;;;;;;;;5104888;28;20144;-73
2021/07/19 14:04:36;;;;;;;10.05;9.07;;;;;;;;;;5098901;28;20024;-74
2021/07/19 14:07:04;;;;;;;12.20;9.90;;;;;;;;;;5104400;28;20108;-73
2021/07/19 14:09:30;;;;;;;13.88;9.23;;;;;;;;;;5099041;28;20031;-73
2021/07/19 14:11:57;;;;;;;9.30;8.32;;;;;;;;;;5097197;28;20389;-74
2021/07/19 14:14:23;;;;;;;10.77;9.13;;;;;;;;;;5101438;27;20085;-72
2021/07/19 14:16:49;;;;;;;12.40;9.38;;;;;;;;;;5103855;28;20028;-75
2021/07/19 14:19:18;;;;;;;12.48;9.38;;;;;;;;;;5094736;28;20589;-72
2021/07/19 14:21:44;;;;;;;11.90;9.00;;;;;;;;;;5097516;28;20031;-75
2021/07/19 14:24:13;;;;;;;11.23;9.50;;;;;;;;;;5097033;28;20067;-72
2021/07/19 14:26:41;;;;;;;10.82;9.65;;;;;;;;;;5096350;28;20022;-77
2021/07/19 14:29:12;;;;;;;12.38;9.45;;;;;;;;;;5102106;28;20043;-72
2021/07/19 14:31:42;;;;;;;17.02;9.48;;;;;;;;;;5103091;28;20114;-73
2021/07/19 14:34:20;;;;;;;14.77;9.90;;;;;;;;;;5098725;28;20042;-74
2021/07/19 14:36:49;;;;;;;12.15;9.73;;;;;;;;;;5111478;27;20397;-84
2021/07/19 14:39:16;;;;;;;12.07;9.80;;;;;;;;;;5099990;28;20035;-75
2021/07/19 14:41:42;;;;;;;11.43;9.40;;;;;;;;;;5099446;28;20515;-74